sensor_id;sensor_type;location;lat;lon;timestamp;P1;durP1;ratioP1;P2;durP2;ratioP2
6442;SDS011;3254;47.372;8.512;2023-05-23T05:20:11;21.10;;;14.80;;
6442;SDS011;3254;47.372;8.512;2023-05-23T05:24:07;22.60;;;13.77;;
6442;SDS011;3254;47.372;8.512;2023-05-23T05:27:26;14.87;;;13.27;;
6442;SDS011;3254;47.372;8.512;2023-05-23T05:31:05;21.57;;;13.43;;
6442;SDS011;3254;47.372;8.512;2023-05-23T05:34:50;16.60;;;12.50;;
6442;SDS011;3254;47.372;8.512;2023-05-23T05:38:21;18.57;;;12.43;;
6442;SDS011;3254;47.372;8.512;2023-05-23T05:45:58;17.60;;;12.43;;
6442;SDS011;3254;47.372;8.512;2023-05-23T05:53:35;15.73;;;11.50;;
6442;SDS011;3254;47.372;8.512;2023-05-23T05:57:04;14.93;;;12.40;;
6442;SDS011;3254;47.372;8.512;2023-05-23T06:00:56;15.80;;;12.00;;
6442;SDS011;3254;47.372;8.512;2023-05-23T06:04:45;16.30;;;12.50;;
6442;SDS011;3254;47.372;8.512;2023-05-23T06:08:36;15.97;;;12.93;;
6442;SDS011;3254;47.372;8.512;2023-05-23T06:12:36;13.20;;;11.80;;
6442;SDS011;3254;47.372;8.512;2023-05-23T06:19:57;18.33;;;12.53;;
6442;SDS011;3254;47.372;8.512;2023-05-23T06:23:37;14.73;;;12.53;;
6442;SDS011;3254;47.372;8.512;2023-05-23T06:27:09;14.77;;;12.33;;
6442;SDS011;3254;47.372;8.512;2023-05-23T07:16:38;13.47;;;12.00;;
6442;SDS011;3254;47.372;8.512;2023-05-23T10:44:39;13.00;;;11.80;;
6442;SDS011;3254;47.372;8.512;2023-05-23T11:18:27;11.30;;;10.30;;
6442;SDS011;3254;47.372;8.512;2023-05-23T11:22:10;10.80;;;9.67;;
6442;SDS011;3254;47.372;8.512;2023-05-23T11:52:40;11.53;;;10.53;;
6442;SDS011;3254;47.372;8.512;2023-05-23T12:56:59;25.77;;;18.67;;
6442;SDS011;3254;47.372;8.512;2023-05-23T12:59:25;19.43;;;14.77;;
6442;SDS011;3254;47.372;8.512;2023-05-23T13:01:51;19.70;;;12.90;;
6442;SDS011;3254;47.372;8.512;2023-05-23T13:04:17;21.40;;;14.03;;
6442;SDS011;3254;47.372;8.512;2023-05-23T13:06:43;22.00;;;17.30;;
6442;SDS011;3254;47.372;8.512;2023-05-23T13:09:09;21.37;;;17.37;;
6442;SDS011;3254;47.372;8.512;2023-05-23T13:11:35;22.53;;;17.47;;
6442;SDS011;3254;47.372;8.512;2023-05-23T13:14:01;31.13;;;17.43;;
6442;SDS011;3254;47.372;8.512;2023-05-23T13:16:27;20.17;;;16.57;;
6442;SDS011;3254;47.372;8.512;2023-05-23T13:18:53;23.63;;;17.60;;
6442;SDS011;3254;47.372;8.512;2023-05-23T13:21:18;22.17;;;17.60;;
6442;SDS011;3254;47.372;8.512;2023-05-23T13:23:44;27.87;;;18.90;;
6442;SDS011;3254;47.372;8.512;2023-05-23T13:26:10;20.10;;;16.17;;
6442;SDS011;3254;47.372;8.512;2023-05-23T13:28:36;20.37;;;16.70;;
6442;SDS011;3254;47.372;8.512;2023-05-23T13:31:01;18.67;;;16.40;;
6442;SDS011;3254;47.372;8.512;2023-05-23T13:33:27;19.93;;;15.50;;
6442;SDS011;3254;47.372;8.512;2023-05-23T13:35:53;19.83;;;14.93;;
6442;SDS011;3254;47.372;8.512;2023-05-23T13:38:19;16.43;;;14.70;;
6442;SDS011;3254;47.372;8.512;2023-05-23T13:40:45;26.03;;;14.77;;
6442;SDS011;3254;47.372;8.512;2023-05-23T13:43:11;16.83;;;12.93;;
6442;SDS011;3254;47.372;8.512;2023-05-23T13:45:36;20.93;;;12.80;;
6442;SDS011;3254;47.372;8.512;2023-05-23T13:48:03;14.57;;;12.43;;
6442;SDS011;3254;47.372;8.512;2023-05-23T13:50:29;14.90;;;12.37;;
6442;SDS011;3254;47.372;8.512;2023-05-23T13:52:55;13.70;;;12.23;;
6442;SDS011;3254;47.372;8.512;2023-05-23T13:55:21;18.13;;;13.17;;
6442;SDS011;3254;47.372;8.512;2023-05-23T13:57:46;19.70;;;13.10;;
6442;SDS011;3254;47.372;8.512;2023-05-23T14:00:12;18.57;;;12.33;;
6442;SDS011;3254;47.372;8.512;2023-05-23T14:02:39;14.63;;;12.30;;
6442;SDS011;3254;47.372;8.512;2023-05-23T14:05:04;16.90;;;11.90;;
6442;SDS011;3254;47.372;8.512;2023-05-23T14:07:32;12.70;;;11.30;;
6442;SDS011;3254;47.372;8.512;2023-05-23T14:09:58;23.10;;;15.47;;
6442;SDS011;3254;47.372;8.512;2023-05-23T14:12:29;18.50;;;14.83;;
6442;SDS011;3254;47.372;8.512;2023-05-23T14:14:55;20.53;;;13.90;;
6442;SDS011;3254;47.372;8.512;2023-05-23T14:17:21;13.87;;;12.57;;
6442;SDS011;3254;47.372;8.512;2023-05-23T14:19:48;22.33;;;15.73;;
6442;SDS011;3254;47.372;8.512;2023-05-23T14:22:17;17.50;;;14.10;;
6442;SDS011;3254;47.372;8.512;2023-05-23T14:24:43;15.87;;;14.00;;
6442;SDS011;3254;47.372;8.512;2023-05-23T14:27:08;17.57;;;15.53;;
6442;SDS011;3254;47.372;8.512;2023-05-23T14:29:35;16.70;;;14.87;;
6442;SDS011;3254;47.372;8.512;2023-05-23T14:32:01;22.00;;;15.10;;
6442;SDS011;3254;47.372;8.512;2023-05-23T14:34:28;16.73;;;14.93;;
6442;SDS011;3254;47.372;8.512;2023-05-23T14:36:55;12.70;;;10.97;;
6442;SDS011;3254;47.372;8.512;2023-05-23T14:39:22;10.83;;;9.93;;
6442;SDS011;3254;47.372;8.512;2023-05-23T14:41:49;11.40;;;9.13;;
6442;SDS011;3254;47.372;8.512;2023-05-23T14:44:15;14.23;;;9.30;;
6442;SDS011;3254;47.372;8.512;2023-05-23T14:46:41;10.30;;;8.90;;
6442;SDS011;3254;47.372;8.512;2023-05-23T14:49:12;9.60;;;7.67;;
6442;SDS011;3254;47.372;8.512;2023-05-23T14:51:39;10.30;;;7.33;;
6442;SDS011;3254;47.372;8.512;2023-05-23T14:54:11;10.60;;;6.83;;
6442;SDS011;3254;47.372;8.512;2023-05-23T14:56:37;7.17;;;6.50;;
6442;SDS011;3254;47.372;8.512;2023-05-23T14:59:05;10.67;;;7.10;;
6442;SDS011;3254;47.372;8.512;2023-05-23T15:01:31;7.00;;;6.30;;
6442;SDS011;3254;47.372;8.512;2023-05-23T15:03:57;7.17;;;6.57;;
6442;SDS011;3254;47.372;8.512;2023-05-23T15:06:22;8.83;;;6.70;;
6442;SDS011;3254;47.372;8.512;2023-05-23T15:08:49;8.50;;;6.40;;
6442;SDS011;3254;47.372;8.512;2023-05-23T15:11:16;11.40;;;7.43;;
6442;SDS011;3254;47.372;8.512;2023-05-23T15:13:42;8.47;;;6.60;;
6442;SDS011;3254;47.372;8.512;2023-05-23T15:16:07;7.83;;;7.03;;
6442;SDS011;3254;47.372;8.512;2023-05-23T15:18:34;8.73;;;7.77;;
6442;SDS011;3254;47.372;8.512;2023-05-23T15:20:59;7.53;;;6.77;;
6442;SDS011;3254;47.372;8.512;2023-05-23T15:23:25;9.43;;;7.30;;
6442;SDS011;3254;47.372;8.512;2023-05-23T15:25:51;8.07;;;7.27;;
6442;SDS011;3254;47.372;8.512;2023-05-23T15:28:16;10.17;;;7.40;;
6442;SDS011;3254;47.372;8.512;2023-05-23T15:30:42;9.93;;;7.20;;
6442;SDS011;3254;47.372;8.512;2023-05-23T15:33:07;7.80;;;7.07;;
6442;SDS011;3254;47.372;8.512;2023-05-23T15:35:33;8.60;;;7.87;;
6442;SDS011;3254;47.372;8.512;2023-05-23T15:37:58;8.93;;;7.10;;
6442;SDS011;3254;47.372;8.512;2023-05-23T15:40:24;9.20;;;7.20;;
6442;SDS011;3254;47.372;8.512;2023-05-23T15:42:50;9.33;;;8.57;;
6442;SDS011;3254;47.372;8.512;2023-05-23T15:45:16;8.10;;;7.40;;
6442;SDS011;3254;47.372;8.512;2023-05-23T15:47:41;13.30;;;9.13;;
6442;SDS011;3254;47.372;8.512;2023-05-23T15:50:09;8.33;;;7.53;;
6442;SDS011;3254;47.372;8.512;2023-05-23T15:52:35;10.27;;;8.63;;
6442;SDS011;3254;47.372;8.512;2023-05-23T15:55:01;11.37;;;8.20;;
6442;SDS011;3254;47.372;8.512;2023-05-23T15:57:30;11.93;;;9.80;;
6442;SDS011;3254;47.372;8.512;2023-05-23T15:59:58;11.10;;;9.93;;
6442;SDS011;3254;47.372;8.512;2023-05-23T16:02:23;10.83;;;9.83;;
6442;SDS011;3254;47.372;8.512;2023-05-23T16:04:50;10.50;;;9.60;;
6442;SDS011;3254;47.372;8.512;2023-05-23T16:07:16;11.80;;;10.57;;
6442;SDS011;3254;47.372;8.512;2023-05-23T16:09:41;11.47;;;9.90;;
6442;SDS011;3254;47.372;8.512;2023-05-23T16:12:07;9.70;;;8.80;;
6442;SDS011;3254;47.372;8.512;2023-05-23T16:14:33;9.60;;;8.70;;
6442;SDS011;3254;47.372;8.512;2023-05-23T16:16:58;10.80;;;8.23;;
6442;SDS011;3254;47.372;8.512;2023-05-23T16:19:27;9.83;;;8.93;;
6442;SDS011;3254;47.372;8.512;2023-05-23T16:21:52;8.90;;;8.10;;
6442;SDS011;3254;47.372;8.512;2023-05-23T16:24:19;13.83;;;9.50;;
6442;SDS011;3254;47.372;8.512;2023-05-23T16:26:46;15.30;;;10.83;;
6442;SDS011;3254;47.372;8.512;2023-05-23T16:29:12;11.07;;;10.07;;
6442;SDS011;3254;47.372;8.512;2023-05-23T16:31:38;15.33;;;10.70;;
6442;SDS011;3254;47.372;8.512;2023-05-23T16:34:03;12.83;;;11.50;;
6442;SDS011;3254;47.372;8.512;2023-05-23T16:36:29;13.10;;;11.70;;
6442;SDS011;3254;47.372;8.512;2023-05-23T16:38:55;14.40;;;12.57;;
6442;SDS011;3254;47.372;8.512;2023-05-23T16:41:20;16.47;;;13.50;;
6442;SDS011;3254;47.372;8.512;2023-05-23T16:43:46;14.10;;;12.60;;
6442;SDS011;3254;47.372;8.512;2023-05-23T16:46:11;17.80;;;13.50;;
6442;SDS011;3254;47.372;8.512;2023-05-23T16:48:37;18.60;;;13.53;;
6442;SDS011;3254;47.372;8.512;2023-05-23T16:51:02;22.77;;;16.20;;
6442;SDS011;3254;47.372;8.512;2023-05-23T16:53:29;18.63;;;14.70;;
6442;SDS011;3254;47.372;8.512;2023-05-23T16:55:55;29.43;;;15.57;;
6442;SDS011;3254;47.372;8.512;2023-05-23T16:58:21;17.40;;;15.30;;
6442;SDS011;3254;47.372;8.512;2023-05-23T17:00:47;16.90;;;14.77;;
6442;SDS011;3254;47.372;8.512;2023-05-23T17:03:14;19.27;;;15.03;;
6442;SDS011;3254;47.372;8.512;2023-05-23T17:05:40;17.57;;;14.40;;
6442;SDS011;3254;47.372;8.512;2023-05-23T17:08:06;18.27;;;14.07;;
6442;SDS011;3254;47.372;8.512;2023-05-23T17:10:32;16.97;;;15.17;;
6442;SDS011;3254;47.372;8.512;2023-05-23T17:13:00;21.03;;;14.83;;
6442;SDS011;3254;47.372;8.512;2023-05-23T17:15:25;23.57;;;15.37;;
6442;SDS011;3254;47.372;8.512;2023-05-23T17:17:51;19.83;;;14.70;;
6442;SDS011;3254;47.372;8.512;2023-05-23T17:20:17;21.17;;;15.13;;
6442;SDS011;3254;47.372;8.512;2023-05-23T17:22:47;19.27;;;14.07;;
6442;SDS011;3254;47.372;8.512;2023-05-23T17:25:15;20.03;;;15.10;;
6442;SDS011;3254;47.372;8.512;2023-05-23T17:27:41;19.73;;;14.97;;
6442;SDS011;3254;47.372;8.512;2023-05-23T17:30:11;19.00;;;14.87;;
6442;SDS011;3254;47.372;8.512;2023-05-23T17:32:44;17.73;;;14.90;;
6442;SDS011;3254;47.372;8.512;2023-05-23T17:35:19;19.93;;;13.87;;
6442;SDS011;3254;47.372;8.512;2023-05-23T17:37:47;16.20;;;13.53;;
6442;SDS011;3254;47.372;8.512;2023-05-23T17:40:13;23.80;;;13.77;;
6442;SDS011;3254;47.372;8.512;2023-05-23T17:42:40;14.70;;;12.80;;
6442;SDS011;3254;47.372;8.512;2023-05-23T17:45:06;15.00;;;12.40;;
6442;SDS011;3254;47.372;8.512;2023-05-23T17:47:37;14.70;;;12.77;;
6442;SDS011;3254;47.372;8.512;2023-05-23T17:50:03;17.43;;;13.60;;
6442;SDS011;3254;47.372;8.512;2023-05-23T17:52:32;17.47;;;13.00;;
6442;SDS011;3254;47.372;8.512;2023-05-23T17:54:58;13.60;;;12.20;;
6442;SDS011;3254;47.372;8.512;2023-05-23T17:57:25;16.90;;;12.90;;
6442;SDS011;3254;47.372;8.512;2023-05-23T17:59:55;17.27;;;13.33;;
6442;SDS011;3254;47.372;8.512;2023-05-23T18:02:21;17.13;;;12.33;;
6442;SDS011;3254;47.372;8.512;2023-05-23T18:04:50;20.27;;;14.83;;
6442;SDS011;3254;47.372;8.512;2023-05-23T18:07:17;19.60;;;14.20;;
6442;SDS011;3254;47.372;8.512;2023-05-23T18:09:45;16.30;;;13.60;;
6442;SDS011;3254;47.372;8.512;2023-05-23T18:12:12;19.27;;;14.90;;
6442;SDS011;3254;47.372;8.512;2023-05-23T18:14:38;16.43;;;14.30;;
6442;SDS011;3254;47.372;8.512;2023-05-23T18:17:06;20.93;;;12.93;;
6442;SDS011;3254;47.372;8.512;2023-05-23T18:19:33;22.13;;;13.73;;
6442;SDS011;3254;47.372;8.512;2023-05-23T18:21:58;18.33;;;13.13;;
6442;SDS011;3254;47.372;8.512;2023-05-23T18:24:24;24.77;;;13.90;;
6442;SDS011;3254;47.372;8.512;2023-05-23T18:26:50;18.47;;;13.73;;
6442;SDS011;3254;47.372;8.512;2023-05-23T18:29:16;19.87;;;15.50;;
6442;SDS011;3254;47.372;8.512;2023-05-23T18:31:43;22.30;;;14.87;;
6442;SDS011;3254;47.372;8.512;2023-05-23T18:34:09;16.53;;;14.70;;
6442;SDS011;3254;47.372;8.512;2023-05-23T18:36:34;15.03;;;12.43;;
6442;SDS011;3254;47.372;8.512;2023-05-23T18:39:00;16.07;;;12.60;;
6442;SDS011;3254;47.372;8.512;2023-05-23T18:41:28;11.37;;;10.27;;
6442;SDS011;3254;47.372;8.512;2023-05-23T18:43:55;14.97;;;12.17;;
6442;SDS011;3254;47.372;8.512;2023-05-23T18:46:21;12.07;;;10.73;;
6442;SDS011;3254;47.372;8.512;2023-05-23T18:48:49;18.60;;;13.57;;
6442;SDS011;3254;47.372;8.512;2023-05-23T18:51:17;42.87;;;27.10;;
6442;SDS011;3254;47.372;8.512;2023-05-23T18:53:44;27.27;;;15.60;;
6442;SDS011;3254;47.372;8.512;2023-05-23T18:56:10;12.37;;;10.83;;
6442;SDS011;3254;47.372;8.512;2023-05-23T18:58:36;12.63;;;11.33;;
6442;SDS011;3254;47.372;8.512;2023-05-23T19:01:01;14.90;;;12.47;;
6442;SDS011;3254;47.372;8.512;2023-05-23T19:03:32;16.30;;;13.07;;
6442;SDS011;3254;47.372;8.512;2023-05-23T19:06:02;16.90;;;12.43;;
6442;SDS011;3254;47.372;8.512;2023-05-23T19:08:28;15.07;;;12.90;;
6442;SDS011;3254;47.372;8.512;2023-05-23T19:10:55;16.10;;;14.40;;
6442;SDS011;3254;47.372;8.512;2023-05-23T19:13:21;21.37;;;15.93;;
6442;SDS011;3254;47.372;8.512;2023-05-23T19:15:47;15.70;;;14.10;;
6442;SDS011;3254;47.372;8.512;2023-05-23T19:18:14;22.20;;;17.63;;
6442;SDS011;3254;47.372;8.512;2023-05-23T19:20:43;25.77;;;18.20;;
6442;SDS011;3254;47.372;8.512;2023-05-23T19:23:09;22.77;;;17.67;;
6442;SDS011;3254;47.372;8.512;2023-05-23T19:25:34;24.40;;;18.43;;
6442;SDS011;3254;47.372;8.512;2023-05-23T19:28:02;23.60;;;17.60;;
6442;SDS011;3254;47.372;8.512;2023-05-23T19:30:28;25.60;;;18.23;;
6442;SDS011;3254;47.372;8.512;2023-05-23T19:32:53;23.60;;;18.77;;
6442;SDS011;3254;47.372;8.512;2023-05-23T19:35:19;27.60;;;20.17;;
6442;SDS011;3254;47.372;8.512;2023-05-23T19:37:46;30.03;;;21.33;;
6442;SDS011;3254;47.372;8.512;2023-05-23T19:40:13;39.60;;;21.00;;
6442;SDS011;3254;47.372;8.512;2023-05-23T19:42:39;37.63;;;23.67;;
6442;SDS011;3254;47.372;8.512;2023-05-23T19:45:07;40.97;;;25.87;;
6442;SDS011;3254;47.372;8.512;2023-05-23T19:47:33;39.63;;;25.10;;
6442;SDS011;3254;47.372;8.512;2023-05-23T19:49:59;39.53;;;24.60;;
6442;SDS011;3254;47.372;8.512;2023-05-23T19:52:24;43.93;;;27.10;;
6442;SDS011;3254;47.372;8.512;2023-05-23T19:54:50;40.80;;;26.23;;
6442;SDS011;3254;47.372;8.512;2023-05-23T19:57:15;50.20;;;28.83;;
6442;SDS011;3254;47.372;8.512;2023-05-23T19:59:41;52.97;;;29.23;;
6442;SDS011;3254;47.372;8.512;2023-05-23T20:02:06;53.67;;;30.57;;
6442;SDS011;3254;47.372;8.512;2023-05-23T20:04:33;44.20;;;27.80;;
6442;SDS011;3254;47.372;8.512;2023-05-23T20:06:59;45.40;;;26.93;;
6442;SDS011;3254;47.372;8.512;2023-05-23T20:09:26;46.00;;;26.90;;
6442;SDS011;3254;47.372;8.512;2023-05-23T20:11:52;58.00;;;28.67;;
6442;SDS011;3254;47.372;8.512;2023-05-23T20:14:17;48.90;;;27.70;;
6442;SDS011;3254;47.372;8.512;2023-05-23T20:16:44;49.80;;;27.17;;
6442;SDS011;3254;47.372;8.512;2023-05-23T20:19:10;43.90;;;26.27;;
6442;SDS011;3254;47.372;8.512;2023-05-23T20:21:35;41.00;;;26.27;;
6442;SDS011;3254;47.372;8.512;2023-05-23T20:24:01;40.63;;;26.20;;
6442;SDS011;3254;47.372;8.512;2023-05-23T20:26:27;48.73;;;27.17;;
6442;SDS011;3254;47.372;8.512;2023-05-23T20:28:52;50.80;;;29.17;;
6442;SDS011;3254;47.372;8.512;2023-05-23T20:31:18;41.87;;;27.03;;
6442;SDS011;3254;47.372;8.512;2023-05-23T20:33:43;47.43;;;28.47;;
6442;SDS011;3254;47.372;8.512;2023-05-23T20:36:09;36.23;;;24.90;;
6442;SDS011;3254;47.372;8.512;2023-05-23T20:38:34;44.77;;;27.30;;
6442;SDS011;3254;47.372;8.512;2023-05-23T20:41:00;44.57;;;27.77;;
6442;SDS011;3254;47.372;8.512;2023-05-23T20:43:30;37.77;;;27.73;;
6442;SDS011;3254;47.372;8.512;2023-05-23T20:45:57;39.77;;;23.73;;
6442;SDS011;3254;47.372;8.512;2023-05-23T20:48:25;38.93;;;25.13;;
6442;SDS011;3254;47.372;8.512;2023-05-23T20:50:52;40.23;;;24.70;;
6442;SDS011;3254;47.372;8.512;2023-05-23T20:53:19;38.23;;;24.80;;
6442;SDS011;3254;47.372;8.512;2023-05-23T20:55:44;39.10;;;25.23;;
6442;SDS011;3254;47.372;8.512;2023-05-23T20:58:12;34.50;;;23.03;;
6442;SDS011;3254;47.372;8.512;2023-05-23T21:00:37;34.00;;;22.80;;
6442;SDS011;3254;47.372;8.512;2023-05-23T21:03:04;38.27;;;25.10;;
6442;SDS011;3254;47.372;8.512;2023-05-23T21:05:30;41.03;;;26.07;;
6442;SDS011;3254;47.372;8.512;2023-05-23T21:07:55;41.60;;;23.10;;
6442;SDS011;3254;47.372;8.512;2023-05-23T21:10:21;34.13;;;22.87;;
6442;SDS011;3254;47.372;8.512;2023-05-23T21:12:47;28.23;;;22.03;;
6442;SDS011;3254;47.372;8.512;2023-05-23T21:15:15;23.27;;;18.43;;
6442;SDS011;3254;47.372;8.512;2023-05-23T21:17:41;25.13;;;19.30;;
6442;SDS011;3254;47.372;8.512;2023-05-23T21:20:08;24.50;;;19.00;;
6442;SDS011;3254;47.372;8.512;2023-05-23T21:22:35;24.97;;;19.53;;
6442;SDS011;3254;47.372;8.512;2023-05-23T21:25:01;26.80;;;18.30;;
6442;SDS011;3254;47.372;8.512;2023-05-23T21:27:28;19.53;;;16.43;;
6442;SDS011;3254;47.372;8.512;2023-05-23T21:29:54;24.67;;;19.20;;
6442;SDS011;3254;47.372;8.512;2023-05-23T21:32:20;22.23;;;17.70;;
6442;SDS011;3254;47.372;8.512;2023-05-23T21:34:46;24.00;;;19.03;;
6442;SDS011;3254;47.372;8.512;2023-05-23T21:37:14;19.57;;;16.83;;
6442;SDS011;3254;47.372;8.512;2023-05-23T21:39:40;24.70;;;18.70;;
6442;SDS011;3254;47.372;8.512;2023-05-23T21:42:06;22.30;;;17.87;;
6442;SDS011;3254;47.372;8.512;2023-05-23T21:44:32;24.67;;;17.50;;
6442;SDS011;3254;47.372;8.512;2023-05-23T21:46:57;20.73;;;17.30;;
6442;SDS011;3254;47.372;8.512;2023-05-23T21:49:23;17.03;;;15.13;;
6442;SDS011;3254;47.372;8.512;2023-05-23T21:51:51;25.40;;;16.60;;
6442;SDS011;3254;47.372;8.512;2023-05-23T21:54:16;21.87;;;17.93;;
6442;SDS011;3254;47.372;8.512;2023-05-23T21:56:43;20.30;;;16.23;;
6442;SDS011;3254;47.372;8.512;2023-05-23T21:59:10;21.00;;;17.10;;
6442;SDS011;3254;47.372;8.512;2023-05-23T22:01:39;18.17;;;14.57;;
6442;SDS011;3254;47.372;8.512;2023-05-23T22:04:05;21.07;;;16.17;;
6442;SDS011;3254;47.372;8.512;2023-05-23T22:06:33;20.23;;;16.37;;
6442;SDS011;3254;47.372;8.512;2023-05-23T22:08:59;19.60;;;16.47;;
6442;SDS011;3254;47.372;8.512;2023-05-23T22:11:34;21.30;;;17.80;;
6442;SDS011;3254;47.372;8.512;2023-05-23T22:14:00;19.00;;;15.60;;
6442;SDS011;3254;47.372;8.512;2023-05-23T22:16:26;20.73;;;17.20;;
6442;SDS011;3254;47.372;8.512;2023-05-23T22:18:53;22.07;;;16.93;;
6442;SDS011;3254;47.372;8.512;2023-05-23T22:21:22;20.83;;;17.07;;
6442;SDS011;3254;47.372;8.512;2023-05-23T22:23:49;22.40;;;18.77;;
6442;SDS011;3254;47.372;8.512;2023-05-23T22:26:19;22.20;;;18.87;;
6442;SDS011;3254;47.372;8.512;2023-05-23T22:28:45;23.53;;;17.80;;
6442;SDS011;3254;47.372;8.512;2023-05-23T22:31:11;24.90;;;18.70;;
6442;SDS011;3254;47.372;8.512;2023-05-23T22:33:38;22.80;;;18.47;;
6442;SDS011;3254;47.372;8.512;2023-05-23T22:36:04;22.93;;;20.40;;
6442;SDS011;3254;47.372;8.512;2023-05-23T22:38:36;24.13;;;19.43;;
6442;SDS011;3254;47.372;8.512;2023-05-23T22:41:03;32.13;;;18.70;;
6442;SDS011;3254;47.372;8.512;2023-05-23T22:43:29;20.90;;;18.17;;
6442;SDS011;3254;47.372;8.512;2023-05-23T22:45:56;20.33;;;16.23;;
6442;SDS011;3254;47.372;8.512;2023-05-23T22:48:24;18.93;;;14.60;;
6442;SDS011;3254;47.372;8.512;2023-05-23T22:50:50;28.50;;;15.10;;
6442;SDS011;3254;47.372;8.512;2023-05-23T22:53:21;14.60;;;13.10;;
6442;SDS011;3254;47.372;8.512;2023-05-23T22:55:47;15.37;;;13.23;;
6442;SDS011;3254;47.372;8.512;2023-05-23T22:58:13;15.00;;;13.40;;
6442;SDS011;3254;47.372;8.512;2023-05-23T23:00:39;18.70;;;14.10;;
6442;SDS011;3254;47.372;8.512;2023-05-23T23:03:05;14.70;;;13.20;;
6442;SDS011;3254;47.372;8.512;2023-05-23T23:05:31;23.13;;;13.87;;
6442;SDS011;3254;47.372;8.512;2023-05-23T23:07:58;19.20;;;13.97;;
6442;SDS011;3254;47.372;8.512;2023-05-23T23:10:24;18.70;;;15.40;;
6442;SDS011;3254;47.372;8.512;2023-05-23T23:12:49;18.97;;;14.90;;
6442;SDS011;3254;47.372;8.512;2023-05-23T23:15:16;19.53;;;14.90;;
6442;SDS011;3254;47.372;8.512;2023-05-23T23:17:42;19.73;;;15.60;;
6442;SDS011;3254;47.372;8.512;2023-05-23T23:20:09;19.50;;;16.10;;
6442;SDS011;3254;47.372;8.512;2023-05-23T23:22:36;20.83;;;15.17;;
6442;SDS011;3254;47.372;8.512;2023-05-23T23:25:02;20.67;;;16.40;;
6442;SDS011;3254;47.372;8.512;2023-05-23T23:27:29;19.20;;;15.23;;
6442;SDS011;3254;47.372;8.512;2023-05-23T23:30:00;18.70;;;15.10;;
6442;SDS011;3254;47.372;8.512;2023-05-23T23:32:27;25.37;;;16.67;;
6442;SDS011;3254;47.372;8.512;2023-05-23T23:34:53;25.27;;;17.27;;
6442;SDS011;3254;47.372;8.512;2023-05-23T23:37:19;22.83;;;15.97;;
6442;SDS011;3254;47.372;8.512;2023-05-23T23:39:45;28.77;;;17.83;;
6442;SDS011;3254;47.372;8.512;2023-05-23T23:42:11;20.63;;;16.00;;
6442;SDS011;3254;47.372;8.512;2023-05-23T23:44:36;24.00;;;16.70;;
6442;SDS011;3254;47.372;8.512;2023-05-23T23:47:02;25.47;;;18.33;;
6442;SDS011;3254;47.372;8.512;2023-05-23T23:49:28;24.90;;;18.90;;
6442;SDS011;3254;47.372;8.512;2023-05-23T23:51:53;23.67;;;17.60;;
6442;SDS011;3254;47.372;8.512;2023-05-23T23:54:19;26.03;;;16.57;;
6442;SDS011;3254;47.372;8.512;2023-05-23T23:56:45;21.57;;;16.93;;
6442;SDS011;3254;47.372;8.512;2023-05-23T23:59:10;23.17;;;16.60;;
